createdAt,value
2023-04-11T00:02:46.220Z,15.00
2023-04-11T00:07:47.921Z,13.70
2023-04-11T00:12:49.392Z,12.00
2023-04-11T00:17:50.900Z,12.40
2023-04-11T00:22:53.459Z,10.90
2023-04-11T00:27:55.037Z,11.00
2023-04-11T00:32:56.523Z,14.80
2023-04-11T00:37:58.184Z,13.00
2023-04-11T00:42:59.958Z,11.50
2023-04-11T00:48:01.985Z,12.70
2023-04-11T00:53:03.707Z,12.00
2023-04-11T00:58:06.851Z,10.20
2023-04-11T01:03:08.725Z,14.20
2023-04-11T01:08:11.236Z,13.20
2023-04-11T01:13:12.768Z,12.80
2023-04-11T01:18:14.951Z,14.00
2023-04-11T01:23:23.897Z,12.10
2023-04-11T01:28:25.675Z,14.60
2023-04-11T01:33:27.352Z,13.60
2023-04-11T01:38:29.038Z,14.10
2023-04-11T01:43:30.594Z,14.10
2023-04-11T01:48:33.774Z,18.50
2023-04-11T01:58:36.756Z,16.00
2023-04-11T02:03:39.012Z,17.60
2023-04-11T02:08:40.606Z,15.90
2023-04-11T02:13:42.093Z,14.50
2023-04-11T02:18:45.075Z,16.50
2023-04-11T02:23:46.549Z,13.50
2023-04-11T02:28:48.023Z,11.90
2023-04-11T02:33:49.613Z,16.20
2023-04-11T02:38:51.075Z,15.00
2023-04-11T02:43:53.506Z,13.70
2023-04-11T02:48:55.548Z,17.70
2023-04-11T02:53:57.234Z,27.80
2023-04-11T02:58:58.986Z,23.50
2023-04-11T03:04:00.924Z,19.40
2023-04-11T03:09:03.429Z,17.60
2023-04-11T03:14:05.037Z,21.00
2023-04-11T03:19:06.715Z,16.20
2023-04-11T03:24:08.386Z,15.50
2023-04-11T03:29:09.860Z,17.10
2023-04-11T03:34:11.347Z,19.20
2023-04-11T03:39:12.799Z,15.50
2023-04-11T03:44:14.800Z,15.70
2023-04-11T03:49:16.250Z,17.80
2023-04-11T03:54:17.729Z,14.60
2023-04-11T03:59:19.399Z,14.10
2023-04-11T04:04:21.036Z,15.50
2023-04-11T04:09:23.626Z,15.80
2023-04-11T04:14:25.139Z,13.10
2023-04-11T04:19:26.628Z,14.40
2023-04-11T04:24:28.991Z,15.90
2023-04-11T04:29:37.428Z,15.70
2023-04-11T04:34:46.380Z,13.00
2023-04-11T04:39:50.523Z,13.60
2023-04-11T04:44:53.625Z,14.40
2023-04-11T04:49:56.006Z,11.90
2023-04-11T04:54:57.924Z,11.80
2023-04-11T04:59:59.459Z,11.70
2023-04-11T05:05:03.493Z,12.90
2023-04-11T05:10:05.743Z,11.50
2023-04-11T05:15:10.978Z,9.90
2023-04-11T05:20:13.021Z,9.70
2023-04-11T05:25:14.515Z,12.60
2023-04-11T05:30:16.258Z,11.30
2023-04-11T05:35:17.686Z,10.90
2023-04-11T05:40:19.202Z,10.40
2023-04-11T05:45:20.671Z,11.60
2023-04-11T05:50:22.353Z,10.40
2023-04-11T05:55:23.814Z,9.50
2023-04-11T06:00:27.930Z,9.50
2023-04-11T06:05:30.852Z,11.20
2023-04-11T06:10:32.523Z,8.60
2023-04-11T06:15:34.175Z,9.80
2023-04-11T06:20:35.768Z,9.30
2023-04-11T06:25:38.073Z,10.40
2023-04-11T06:35:44.758Z,10.60
2023-04-11T06:45:52.265Z,9.10
2023-04-11T06:50:55.138Z,10.20
2023-04-11T06:55:59.882Z,8.60
2023-04-11T07:01:02.801Z,9.30
2023-04-11T07:06:07.550Z,9.50
2023-04-11T07:11:10.643Z,9.00
2023-04-11T07:16:13.494Z,7.80
2023-04-11T07:26:19.256Z,8.20
2023-04-11T07:36:29.055Z,7.30
2023-04-11T07:41:31.902Z,7.90
2023-04-11T07:46:34.791Z,7.50
2023-04-11T07:51:37.857Z,7.90
2023-04-11T07:56:41.061Z,7.90
2023-04-11T08:01:43.900Z,7.60
2023-04-11T08:11:49.784Z,8.10
2023-04-11T08:16:53.274Z,8.20
2023-04-11T08:21:56.582Z,7.60
2023-04-11T08:26:59.837Z,5.90
2023-04-11T08:32:03.040Z,7.30
2023-04-11T08:37:05.846Z,6.20
2023-04-11T08:47:24.693Z,6.10
2023-04-11T08:52:28.936Z,6.30
2023-04-11T08:57:31.928Z,6.80
2023-04-11T09:02:35.221Z,6.30
2023-04-11T09:07:50.437Z,5.50
2023-04-11T09:12:54.427Z,6.20
2023-04-11T09:18:00.596Z,5.90
2023-04-11T09:23:03.951Z,5.60
2023-04-11T09:28:10.920Z,6.10
2023-04-11T09:33:24.951Z,5.50
2023-04-11T09:38:29.334Z,5.70
2023-04-11T09:43:53.826Z,5.90
2023-04-11T09:48:57.581Z,5.20
2023-04-11T09:54:02.306Z,5.10
2023-04-11T09:59:05.673Z,6.40
2023-04-11T10:04:11.145Z,5.60
2023-04-11T10:09:16.117Z,5.80
2023-04-11T10:14:38.949Z,5.30
2023-04-11T10:19:43.816Z,5.80
2023-04-11T10:25:19.032Z,5.90
2023-04-11T10:30:40.303Z,6.10
2023-04-11T10:36:12.437Z,6.50
2023-04-11T10:41:18.992Z,6.60
2023-04-11T10:46:23.731Z,6.10
2023-04-11T10:51:28.211Z,6.70
2023-04-11T10:56:40.364Z,6.70
2023-04-11T11:01:57.189Z,7.20
2023-04-11T11:07:04.513Z,6.70
2023-04-11T11:12:15.566Z,6.20
2023-04-11T11:17:18.485Z,7.00
2023-04-11T11:22:28.711Z,6.40
2023-04-11T11:27:31.745Z,6.00
2023-04-11T11:32:34.769Z,5.90
2023-04-11T11:37:38.029Z,6.20
2023-04-11T11:42:41.724Z,5.50
2023-04-11T11:47:47.175Z,5.70
2023-04-11T11:52:51.452Z,5.50
2023-04-11T11:57:54.399Z,6.50
2023-04-11T12:02:59.761Z,7.00
2023-04-11T12:08:05.362Z,5.80
2023-04-11T12:13:36.382Z,5.80
2023-04-11T12:18:42.345Z,6.60
2023-04-11T12:23:45.772Z,6.20
2023-04-11T12:28:50.324Z,6.40
2023-04-11T12:33:53.325Z,6.50
2023-04-11T12:38:56.958Z,6.70
2023-04-11T12:44:02.586Z,7.50
2023-04-11T12:49:06.333Z,7.10
2023-04-11T12:54:09.233Z,7.60
2023-04-11T12:59:12.140Z,6.70
2023-04-11T13:04:15.492Z,7.40
2023-04-11T13:09:18.766Z,7.10
2023-04-11T13:14:21.673Z,7.00
2023-04-11T13:19:24.881Z,6.00
2023-04-11T13:24:27.903Z,6.60
2023-04-11T13:29:30.798Z,5.80
2023-04-11T13:34:34.278Z,6.00
2023-04-11T13:39:37.111Z,6.10
2023-04-11T13:44:40.020Z,5.30
2023-04-11T13:49:42.920Z,5.20
2023-04-11T13:54:46.039Z,5.90
2023-04-11T13:59:48.916Z,6.80
2023-04-11T14:04:52.273Z,5.90
2023-04-11T14:09:54.995Z,4.80
2023-04-11T14:14:57.851Z,5.00
2023-04-11T14:20:01.058Z,4.70
2023-04-11T14:25:06.925Z,4.80
2023-04-11T14:30:12.274Z,5.40
2023-04-11T14:35:15.707Z,5.50
2023-04-11T14:40:18.601Z,5.20
2023-04-11T14:45:21.438Z,5.90
2023-04-11T14:50:25.048Z,4.70
2023-04-11T14:55:28.935Z,5.20
2023-04-11T15:00:37.934Z,5.60
2023-04-11T15:05:51.695Z,5.80
2023-04-11T15:10:54.844Z,5.60
2023-04-11T15:16:04.428Z,5.70
2023-04-11T15:21:07.905Z,5.70
2023-04-11T15:26:11.368Z,5.90
2023-04-11T15:31:25.377Z,5.80
2023-04-11T15:36:29.078Z,6.00
2023-04-11T15:41:32.153Z,6.00
2023-04-11T15:46:34.990Z,6.00
2023-04-11T15:51:38.368Z,5.70
2023-04-11T15:56:41.274Z,5.40
2023-04-11T16:01:46.160Z,5.80
2023-04-11T16:06:49.337Z,6.20
2023-04-11T16:11:52.235Z,7.20
2023-04-11T16:16:55.940Z,6.90
2023-04-11T16:21:58.866Z,6.90
2023-04-11T16:27:02.902Z,6.40
2023-04-11T16:32:06.450Z,7.90
2023-04-11T16:37:09.520Z,11.50
2023-04-11T16:47:15.101Z,8.20
2023-04-11T16:52:18.131Z,8.90
2023-04-11T17:02:23.917Z,10.60
2023-04-11T17:07:28.582Z,11.80
2023-04-11T17:12:31.941Z,10.50
2023-04-11T17:17:34.907Z,9.60
2023-04-11T17:22:41.462Z,9.30
2023-04-11T17:27:44.392Z,10.20
2023-04-11T17:32:48.804Z,10.00
2023-04-11T17:37:52.364Z,9.60
2023-04-11T17:42:57.708Z,10.50
2023-04-11T17:48:01.453Z,9.60
2023-04-11T17:53:05.069Z,9.50
2023-04-11T17:58:08.071Z,9.70
2023-04-11T18:03:11.651Z,10.20
2023-04-11T18:08:14.854Z,9.60
2023-04-11T18:13:17.696Z,11.20
2023-04-11T18:18:20.597Z,16.70
2023-04-11T18:23:23.604Z,14.30
2023-04-11T18:33:29.466Z,12.30
2023-04-11T18:38:32.417Z,10.00
2023-04-11T18:43:35.651Z,10.60
2023-04-11T18:48:38.595Z,12.20
2023-04-11T18:53:41.945Z,10.60
2023-04-11T18:58:46.657Z,10.60
2023-04-11T19:03:54.748Z,11.20
2023-04-11T19:08:58.028Z,10.90
2023-04-11T19:14:01.555Z,11.00
2023-04-11T19:19:04.454Z,11.10
2023-04-11T19:24:08.602Z,11.80
2023-04-11T19:29:11.788Z,10.10
2023-04-11T19:39:18.928Z,9.30
2023-04-11T19:44:22.461Z,18.10
2023-04-11T19:49:25.359Z,19.30
2023-04-11T19:54:28.246Z,14.60
2023-04-11T19:59:31.061Z,17.00
2023-04-11T20:04:33.968Z,16.20
2023-04-11T20:09:36.859Z,15.80
2023-04-11T20:14:39.869Z,15.30
2023-04-11T20:19:44.514Z,16.80
2023-04-11T20:24:48.220Z,15.60
2023-04-11T20:29:50.973Z,16.00
2023-04-11T20:34:53.973Z,15.30
2023-04-11T20:45:10.137Z,15.50
2023-04-11T20:50:14.625Z,19.00
2023-04-11T20:55:18.251Z,16.60
2023-04-11T21:00:21.152Z,14.80
2023-04-11T21:05:25.225Z,14.20
2023-04-11T21:10:28.293Z,15.20
2023-04-11T21:15:31.341Z,25.50
2023-04-11T21:20:34.712Z,25.80
2023-04-11T21:25:38.140Z,31.20
2023-04-11T21:30:42.670Z,26.70
2023-04-11T21:35:45.697Z,28.80
2023-04-11T21:45:51.486Z,30.40
2023-04-11T21:50:54.805Z,22.90
2023-04-11T21:55:57.710Z,20.20
2023-04-11T22:01:01.891Z,23.80
2023-04-11T22:06:05.226Z,24.90
2023-04-11T22:11:14.385Z,39.90
2023-04-11T22:16:17.218Z,36.80
2023-04-11T22:21:20.525Z,29.80
2023-04-11T22:26:34.693Z,29.30
2023-04-11T22:31:39.011Z,28.40
2023-04-11T22:36:42.134Z,27.30
2023-04-11T22:41:47.895Z,36.20
2023-04-11T22:47:06.225Z,30.40
2023-04-11T22:52:14.180Z,28.00
2023-04-11T22:57:16.987Z,26.50
2023-04-11T23:02:19.971Z,29.70
2023-04-11T23:07:25.412Z,34.00
2023-04-11T23:12:31.985Z,30.40
2023-04-11T23:17:34.958Z,27.30
2023-04-11T23:22:37.856Z,27.00
2023-04-11T23:27:43.621Z,27.10
2023-04-11T23:32:47.268Z,29.40
2023-04-11T23:37:51.061Z,42.10
2023-04-11T23:42:53.968Z,40.50
2023-04-11T23:47:57.538Z,34.80
2023-04-11T23:53:00.694Z,37.60
2023-04-11T23:58:04.323Z,38.40
